Time;durP1;ratioP1;P1;durP2;ratioP2;P2;SDS_P1;SDS_P2;PMS_P1;PMS_P2;Temp;Humidity;BMP_temperature;BMP_pressure;BME280_temperature;BME280_humidity;BME280_pressure;Samples;Min_cycle;Max_cycle;Signal;HPM_P1;HPM_P2
2022/11/18 02:48:35;;;;;;;4.63;1.60;;;;;;;8.84;90.85;98142.84;1077510;46;20138;-76
2022/11/18 02:49:41;;;;;;;3.85;1.35;;;;;;;8.79;90.71;98142.56;1084643;54;20050;-78
2022/11/18 02:50:48;;;;;;;3.75;1.17;;;;;;;8.87;90.08;98142.47;1084898;54;20046;-77
2022/11/18 02:51:51;;;;;;;4.15;1.00;;;;;;;8.85;90.54;98142.66;1085088;46;20038;-77
2022/11/18 02:53:00;;;;;;;3.50;1.17;;;;;;;8.80;91.58;98142.38;1084790;54;20109;-77
2022/11/18 02:54:07;;;;;;;5.15;1.50;;;;;;;8.77;91.95;98132.09;1084848;54;20030;-78
2022/11/18 02:55:15;;;;;;;4.50;1.20;;;;;;;8.85;91.26;98145.34;1085314;47;20042;-76
2022/11/18 02:56:19;;;;;;;3.88;1.10;;;;;;;8.84;91.36;98142.84;1085132;54;20039;-79
2022/11/18 02:57:25;;;;;;;4.32;1.23;;;;;;;8.80;91.38;98146.88;1086455;31;20505;-79
2022/11/18 02:58:27;;;;;;;5.10;1.38;;;;;;;8.98;90.20;98141.22;1085494;46;20561;-78
2022/11/18 02:59:33;;;;;;;3.53;1.20;;;;;;;9.06;89.40;98135.81;1085282;54;20069;-78
2022/11/18 03:01:01;;;;;;;4.20;1.80;;;;;;;8.92;90.54;98128.63;1085613;46;20146;-77
2022/11/18 03:02:04;;;;;;;4.18;1.50;;;;;;;8.93;90.20;98131.09;1083982;54;20042;-79
2022/11/18 03:03:28;;;;;;;3.10;1.23;;;;;;;8.94;90.12;98126.59;1083618;54;20042;-77
2022/11/18 03:04:35;;;;;;;3.53;1.00;;;;;;;8.99;89.63;98125.06;1083785;54;20094;-78
2022/11/18 03:05:50;;;;;;;2.92;1.00;;;;;;;9.09;89.36;98126.63;1083806;54;20030;-79
2022/11/18 03:07:01;;;;;;;3.38;0.98;;;;;;;9.10;88.92;98133.63;1084182;54;20562;-81
2022/11/18 03:08:09;;;;;;;3.35;1.15;;;;;;;9.20;88.39;98129.66;1086371;39;20149;-78
2022/11/18 03:09:21;;;;;;;3.00;0.77;;;;;;;9.17;88.49;98138.03;1084827;39;20401;-77
2022/11/18 03:10:32;;;;;;;2.53;0.65;;;;;;;9.24;87.80;98123.97;1083671;54;20066;-78
2022/11/18 03:11:46;;;;;;;4.03;0.93;;;;;;;9.18;87.46;98123.69;1084043;54;20053;-79
2022/11/18 03:13:01;;;;;;;2.10;0.68;;;;;;;9.19;86.92;98130.69;1083819;54;20034;-77
2022/11/18 03:14:27;;;;;;;3.58;0.77;;;;;;;9.18;86.93;98128.19;1083845;54;20057;-77
2022/11/18 03:15:42;;;;;;;2.53;0.70;;;;;;;9.19;87.13;98132.53;1083836;54;20030;-77
2022/11/18 03:16:50;;;;;;;2.70;0.63;;;;;;;9.22;87.28;98134.81;1084008;54;20042;-80
2022/11/18 03:18:04;;;;;;;2.30;0.70;;;;;;;9.21;87.01;98128.66;1083714;54;20141;-77
2022/11/18 03:19:12;;;;;;;1.58;0.50;;;;;;;9.26;86.53;98133.44;1083875;47;20026;-77
2022/11/18 03:20:24;;;;;;;1.75;0.68;;;;;;;9.23;86.84;98127.66;1084277;47;20038;-79
2022/11/18 03:21:54;;;;;;;2.85;0.82;;;;;;;9.26;86.74;98136.09;1083476;54;20065;-79
2022/11/18 03:23:03;;;;;;;3.22;0.77;;;;;;;9.30;86.95;98136.56;1083705;54;20068;-78
2022/11/18 03:24:14;;;;;;;2.95;0.85;;;;;;;9.28;86.43;98143.91;1083763;54;20073;-77
2022/11/18 03:25:22;;;;;;;3.60;0.60;;;;;;;9.27;86.37;98137.75;1084124;46;20035;-77
2022/11/18 03:26:32;;;;;;;2.17;0.80;;;;;;;9.32;86.11;98139.88;1083633;54;20049;-78
2022/11/18 03:27:37;;;;;;;2.80;0.80;;;;;;;9.31;86.05;98133.72;1083350;54;20042;-77
2022/11/18 03:28:57;;;;;;;3.45;0.80;;;;;;;9.36;86.10;98143.81;1083669;47;20583;-79
2022/11/18 03:30:02;;;;;;;2.80;1.23;;;;;;;9.35;86.10;98145.69;1084122;54;20038;-79
2022/11/18 03:31:23;;;;;;;;;;;;;;;;;;;;;
2022/11/18 03:36:56;;;;;;;3.85;0.80;;;;;;;9.24;86.41;98153.31;1083371;54;20061;-80
2022/11/18 03:38:35;;;;;;;3.03;0.80;;;;;;;9.18;86.26;98161.00;1084220;54;20034;-81
2022/11/18 03:39:46;;;;;;;2.10;0.70;;;;;;;9.21;86.69;98165.97;1084716;54;20133;-78
2022/11/18 03:41:03;;;;;;;2.78;0.55;;;;;;;9.23;86.30;98178.31;1084571;54;20038;-77
2022/11/18 03:42:17;;;;;;;3.55;0.88;;;;;;;9.10;87.54;98178.94;1084628;54;20057;-78
2022/11/18 03:43:34;;;;;;;4.15;1.70;;;;;;;8.94;88.48;98185.22;1084943;47;20039;-78
2022/11/18 03:45:08;;;;;;;3.72;1.20;;;;;;;8.89;88.86;98191.09;1085060;39;20507;-78
2022/11/18 03:48:56;;;;;;;3.15;0.75;;;;;;;8.82;89.87;98196.31;1084295;54;20647;-79
2022/11/18 03:52:53;;;;;;;4.10;0.85;;;;;;;8.87;89.08;98204.63;1084423;54;20147;-77
2022/11/18 03:54:26;;;;;;;2.08;0.40;;;;;;;8.81;89.27;98210.63;1084151;54;20034;-78
2022/11/18 03:58:07;;;;;;;3.03;0.80;;;;;;;8.90;88.97;98206.09;1084495;54;20050;-77
2022/11/18 05:08:13;;;;;;;3.65;0.85;;;;;;;9.02;82.90;98268.59;1033881;54;52273;-78
2022/11/18 05:09:16;;;;;;;3.10;0.75;;;;;;;9.00;83.52;98275.13;1085932;54;20042;-76
2022/11/18 05:10:21;;;;;;;1.67;0.55;;;;;;;8.79;84.26;98276.59;1086246;54;20066;-77
2022/11/18 05:12:49;;;;;;;2.47;0.70;;;;;;;8.80;84.56;98280.91;1087410;38;20440;-78
2022/11/18 05:13:51;;;;;;;2.10;0.50;;;;;;;8.64;85.10;98281.03;1086494;46;20094;-81
2022/11/18 05:15:02;;;;;;;1.88;0.50;;;;;;;8.70;85.23;98286.50;1086319;54;20061;-78
2022/11/18 05:16:04;;;;;;;2.25;0.47;;;;;;;8.78;84.77;98284.78;1086540;54;20045;-77
2022/11/18 05:17:11;;;;;;;1.63;0.57;;;;;;;8.73;85.22;98283.47;1086261;54;20070;-77
2022/11/18 05:18:12;;;;;;;3.80;0.73;;;;;;;8.88;84.44;98280.84;1086089;54;20030;-77
2022/11/18 05:19:17;;;;;;;2.55;0.70;;;;;;;8.92;84.37;98289.34;1085910;54;20038;-78
2022/11/18 05:20:18;;;;;;;2.15;0.70;;;;;;;8.90;84.38;98283.38;1086010;54;20607;-77
2022/11/18 05:21:23;;;;;;;1.60;0.60;;;;;;;8.80;84.81;98283.59;1086277;54;20034;-78
2022/11/18 05:22:48;;;;;;;2.42;0.70;;;;;;;8.66;85.89;98289.69;1086345;54;20062;-79
2022/11/18 05:23:52;;;;;;;2.33;0.60;;;;;;;8.63;86.03;98282.03;1086201;46;20134;-77
2022/11/18 05:24:56;;;;;;;2.17;0.63;;;;;;;8.71;85.51;98287.31;1086171;54;20659;-77
2022/11/18 05:26:02;;;;;;;2.15;0.70;;;;;;;8.78;85.42;98282.97;1085965;54;20030;-78
2022/11/18 05:27:06;;;;;;;2.60;0.88;;;;;;;8.80;84.95;98286.25;1085966;54;20619;-79
2022/11/18 05:28:08;;;;;;;1.80;0.60;;;;;;;8.73;85.39;98287.97;1086331;54;20552;-79
2022/11/18 05:29:13;;;;;;;3.50;1.20;;;;;;;8.66;85.45;98295.00;1086317;46;20045;-80
2022/11/18 05:30:30;;;;;;;2.45;0.95;;;;;;;8.70;85.50;98297.16;1086692;31;20519;-79
2022/11/18 05:31:32;;;;;;;3.28;1.83;;;;;;;8.71;85.18;98292.63;1086248;54;20106;-78
2022/11/18 05:32:45;;;;;;;3.95;1.90;;;;;;;8.76;85.50;98290.28;1086326;54;20084;-77
2022/11/18 05:33:47;;;;;;;3.65;2.30;;;;;;;8.61;85.89;98292.88;1086212;54;20069;-78
2022/11/18 05:34:52;;;;;;;5.75;2.97;;;;;;;8.58;86.20;98296.72;1086573;54;20045;-79
2022/11/18 05:35:54;;;;;;;4.80;2.80;;;;;;;8.61;86.42;98298.19;1085792;54;20290;-79
2022/11/18 05:36:59;;;;;;;4.25;2.63;;;;;;;8.60;86.45;98298.38;1086040;54;20022;-78
2022/11/18 05:38:06;;;;;;;4.80;2.60;;;;;;;8.43;87.20;98298.41;1086341;54;20042;-78
2022/11/18 05:39:13;;;;;;;3.95;1.98;;;;;;;8.47;87.12;98297.09;1086574;46;20026;-78
2022/11/18 05:40:16;;;;;;;3.33;1.77;;;;;;;8.46;87.37;98299.88;1086370;54;20050;-78
2022/11/18 05:43:54;;;;;;;3.50;1.90;;;;;;;8.51;87.31;98301.06;1086179;54;20051;-78
2022/11/18 05:45:10;;;;;;;3.83;2.30;;;;;;;8.38;88.35;98303.44;1086313;54;20046;-79
2022/11/18 05:46:15;;;;;;;3.90;2.20;;;;;;;8.43;87.94;98312.56;1086740;46;20038;-79
2022/11/18 05:47:58;;;;;;;3.33;1.92;;;;;;;8.47;88.41;98318.41;1086312;46;20042;-79
2022/11/18 05:48:51;;;;;;;4.32;2.75;;;;;;;8.46;87.98;98314.06;1085836;54;20583;-79
2022/11/18 05:49:55;;;;;;;4.82;3.72;;;;;;;8.49;87.82;98321.75;1084767;47;20026;-79
2022/11/18 05:50:59;;;;;;;5.65;4.05;;;;;;;8.50;88.17;98310.06;1084701;54;20073;-78
2022/11/18 05:52:04;;;;;;;6.50;4.00;;;;;;;8.52;88.11;98318.72;1084850;54;20569;-78
2022/11/18 05:53:05;;;;;;;5.53;3.88;;;;;;;8.55;88.10;98313.03;1084680;54;20042;-79
2022/11/18 05:54:15;;;;;;;6.70;4.75;;;;;;;8.56;88.17;98317.38;1084868;46;20069;-78
2022/11/18 05:55:19;;;;;;;5.47;4.47;;;;;;;8.60;88.18;98325.03;1085016;46;20042;-77
2022/11/18 05:56:38;;;;;;;4.72;2.97;;;;;;;8.73;87.50;98318.13;1084573;54;20050;-80
2022/11/18 05:57:40;;;;;;;4.43;2.10;;;;;;;8.73;87.16;98323.44;1085218;31;20542;-81
2022/11/18 05:58:44;;;;;;;3.38;1.58;;;;;;;8.85;86.88;98328.34;1084587;46;20038;-78
2022/11/18 05:59:48;;;;;;;3.95;1.20;;;;;;;8.92;86.41;98320.50;1084447;54;20038;-78
2022/11/18 06:00:53;;;;;;;2.83;0.95;;;;;;;8.94;86.28;98326.47;1084597;54;20038;-78
2022/11/18 06:02:17;;;;;;;5.72;3.72;;;;;;;8.69;87.51;98330.13;1084532;54;20035;-79
2022/11/18 06:03:42;;;;;;;6.95;4.60;;;;;;;8.60;88.44;98331.16;1084603;54;20069;-79
2022/11/18 06:08:34;;;;;;;5.35;2.90;;;;;;;8.46;88.75;98346.00;1077855;54;20080;-78
2022/11/18 06:09:44;;;;;;;5.13;2.95;;;;;;;8.46;88.93;98343.34;1085034;46;20556;-79
2022/11/18 06:10:48;;;;;;;5.50;3.22;;;;;;;8.37;89.71;98344.38;1084996;46;20034;-78
2022/11/18 06:12:02;;;;;;;6.18;3.08;;;;;;;8.50;89.27;98351.84;1086138;54;20032;-78
2022/11/18 06:13:08;;;;;;;5.10;2.95;;;;;;;8.53;88.72;98354.19;1087392;46;20061;-78
2022/11/18 06:14:17;;;;;;;6.95;3.97;;;;;;;8.46;88.99;98346.00;1087714;54;20019;-77
2022/11/18 06:15:21;;;;;;;5.22;3.25;;;;;;;8.47;89.35;98350.38;1088147;54;20095;-78
2022/11/18 06:16:30;;;;;;;5.55;2.75;;;;;;;8.55;88.93;98347.66;1088006;54;20010;-78
2022/11/18 06:17:36;;;;;;;4.25;2.72;;;;;;;8.53;88.72;98355.00;1088049;54;20027;-78
2022/11/18 06:18:40;;;;;;;5.75;3.03;;;;;;;8.58;88.71;98352.66;1088192;54;20038;-78
2022/11/18 06:19:42;;;;;;;5.25;3.30;;;;;;;8.63;88.41;98360.13;1086763;54;20058;-78
2022/11/18 06:21:03;;;;;;;4.50;2.90;;;;;;;8.68;88.70;98356.94;1084611;54;20050;-78
2022/11/18 06:22:08;;;;;;;5.63;3.15;;;;;;;8.72;88.16;98359.09;1084778;54;20039;-78
2022/11/18 06:23:10;;;;;;;5.18;2.83;;;;;;;8.77;87.93;98363.88;1085039;54;20057;-78
2022/11/18 06:24:21;;;;;;;4.65;2.55;;;;;;;8.86;87.73;98362.84;1085220;54;20035;-77
2022/11/18 06:25:29;;;;;;;4.00;2.40;;;;;;;8.94;87.37;98355.78;1084796;54;20065;-78
2022/11/18 06:26:33;;;;;;;4.03;2.13;;;;;;;8.98;87.00;98357.94;1085171;54;20041;-78
2022/11/18 06:27:35;;;;;;;3.20;1.27;;;;;;;9.04;86.66;98361.75;1085441;46;20054;-77
2022/11/18 06:28:40;;;;;;;2.38;1.00;;;;;;;9.10;86.29;98362.88;1085307;46;20051;-77
2022/11/18 06:29:51;;;;;;;2.42;1.02;;;;;;;9.12;86.00;98366.16;1085441;39;20512;-77
2022/11/18 06:30:53;;;;;;;3.25;1.17;;;;;;;9.15;86.36;98365.81;1084898;54;20038;-78
2022/11/18 06:31:57;;;;;;;2.08;0.80;;;;;;;9.18;86.13;98365.47;1084737;54;20027;-81
2022/11/18 06:32:59;;;;;;;2.90;0.95;;;;;;;9.20;85.98;98372.28;1084398;46;20071;-78
2022/11/18 06:34:03;;;;;;;3.25;1.02;;;;;;;9.25;85.75;98368.28;1084539;54;20027;-81
2022/11/18 06:35:20;;;;;;;2.97;1.00;;;;;;;9.21;85.76;98373.09;1084768;54;20047;-80
2022/11/18 06:36:24;;;;;;;2.55;1.20;;;;;;;9.21;86.02;98368.63;1085052;54;20061;-77
2022/11/18 06:37:53;;;;;;;4.63;2.22;;;;;;;8.95;86.45;98368.94;1085164;46;20541;-79
2022/11/18 06:38:57;;;;;;;4.10;2.60;;;;;;;8.89;87.14;98374.97;1086951;54;20034;-78
2022/11/18 06:39:59;;;;;;;5.38;3.03;;;;;;;8.84;87.79;98375.50;1087381;54;20058;-78
2022/11/18 06:41:06;;;;;;;6.03;3.45;;;;;;;8.82;87.78;98380.16;1087522;54;20061;-77
2022/11/18 06:42:08;;;;;;;5.53;3.40;;;;;;;8.72;88.40;98384.88;1087310;54;20050;-79
2022/11/18 06:44:30;;;;;;;8.90;2.83;;;;;;;8.77;87.89;98390.53;1087504;54;20035;-79
2022/11/18 06:45:32;;;;;;;4.50;1.95;;;;;;;8.83;87.63;98387.16;1087248;54;20023;-77
2022/11/18 06:47:52;;;;;;;4.57;2.28;;;;;;;8.71;88.24;98388.53;1087612;54;20015;-81
2022/11/18 06:49:01;;;;;;;4.28;2.22;;;;;;;8.70;88.48;98390.38;1087619;54;20053;-77
2022/11/18 06:50:06;;;;;;;4.43;2.33;;;;;;;8.68;88.48;98392.38;1087765;54;20034;-77
2022/11/18 06:51:26;;;;;;;4.40;1.73;;;;;;;8.77;88.62;98392.34;1086852;54;20041;-77
2022/11/18 06:52:28;;;;;;;5.00;2.42;;;;;;;8.69;88.52;98386.06;1085601;46;20042;-78
2022/11/18 06:53:39;;;;;;;3.10;1.30;;;;;;;8.56;89.03;98391.94;1085370;54;20041;-78
2022/11/18 06:54:43;;;;;;;4.47;1.35;;;;;;;8.49;89.75;98403.44;1085252;54;20079;-80
2022/11/18 06:56:22;;;;;;;3.42;1.27;;;;;;;8.56;89.26;98397.28;1085769;46;20050;-77
2022/11/18 06:57:27;;;;;;;3.15;1.10;;;;;;;8.60;88.84;98394.28;1085353;54;20611;-76
2022/11/18 06:58:32;;;;;;;3.78;1.30;;;;;;;8.63;88.73;98392.09;1085285;54;20059;-79
2022/11/18 06:59:36;;;;;;;2.83;1.00;;;;;;;8.60;88.88;98403.09;1085584;54;20054;-77
2022/11/18 07:00:47;;;;;;;4.07;1.10;;;;;;;8.55;89.30;98402.75;1085061;54;20037;-77
2022/11/18 07:01:49;;;;;;;2.95;0.85;;;;;;;8.49;90.08;98401.63;1084931;54;20541;-77
2022/11/18 07:03:05;;;;;;;4.53;1.30;;;;;;;8.47;89.98;98403.63;1085195;46;20030;-76
2022/11/18 07:04:10;;;;;;;3.50;1.00;;;;;;;8.52;89.66;98406.59;1085573;47;20057;-77
2022/11/18 07:05:11;;;;;;;3.50;1.20;;;;;;;8.55;89.61;98411.59;1087309;54;20042;-82
2022/11/18 07:07:00;;;;;;;3.63;1.05;;;;;;;8.59;89.85;98412.06;1086134;54;20034;-77
2022/11/18 07:08:02;;;;;;;3.30;1.00;;;;;;;8.44;90.28;98411.91;1087108;54;20011;-80
2022/11/18 07:09:08;;;;;;;4.88;1.33;;;;;;;8.45;90.50;98418.09;1085778;46;20544;-77
2022/11/18 07:10:10;;;;;;;3.40;1.00;;;;;;;8.54;90.06;98415.25;1085567;54;20061;-79
2022/11/18 07:11:37;;;;;;;4.97;1.10;;;;;;;8.42;90.19;98416.59;1084735;54;20034;-77
2022/11/18 07:12:41;;;;;;;3.03;1.17;;;;;;;8.41;90.37;98423.75;1086062;54;20027;-77
2022/11/18 07:13:46;;;;;;;3.47;1.00;;;;;;;8.45;90.77;98426.91;1085790;54;20034;-78
2022/11/18 07:14:50;;;;;;;3.65;1.35;;;;;;;8.52;90.00;98430.56;1084714;54;20026;-77
2022/11/18 07:15:52;;;;;;;4.53;1.02;;;;;;;8.40;90.61;98424.75;1084493;54;20045;-77
2022/11/18 07:16:57;;;;;;;4.05;1.55;;;;;;;8.50;90.11;98424.56;1084562;54;20031;-79
2022/11/18 07:17:58;;;;;;;5.35;1.17;;;;;;;8.49;90.27;98433.59;1084892;54;20037;-77
2022/11/18 07:19:03;;;;;;;4.55;1.30;;;;;;;8.49;90.24;98438.91;1085283;39;20453;-78
2022/11/18 07:20:05;;;;;;;5.53;1.15;;;;;;;8.48;90.30;98431.94;1084844;54;20058;-79
2022/11/18 07:21:11;;;;;;;4.35;1.20;;;;;;;8.46;90.56;98439.22;1085037;47;20035;-78
2022/11/18 07:22:28;;;;;;;3.80;1.70;;;;;;;8.40;90.66;98434.59;1084873;54;20027;-77
2022/11/18 07:23:32;;;;;;;5.03;1.00;;;;;;;8.41;90.55;98430.91;1084737;54;20046;-79
2022/11/18 07:24:42;;;;;;;2.83;1.10;;;;;;;8.50;90.60;98437.06;1084862;54;20082;-81
2022/11/18 07:25:43;;;;;;;2.65;1.10;;;;;;;8.37;91.32;98440.25;1084977;54;20054;-78
2022/11/18 07:26:48;;;;;;;2.63;0.90;;;;;;;8.27;91.77;98441.25;1085205;54;20057;-80
2022/11/18 07:27:57;;;;;;;2.80;1.00;;;;;;;8.31;91.66;98446.25;1084830;54;20549;-77
2022/11/18 07:29:01;;;;;;;4.28;1.02;;;;;;;8.50;90.89;98445.06;1084385;54;20126;-78
2022/11/18 07:30:04;;;;;;;3.65;1.17;;;;;;;8.57;89.98;98441.56;1084781;54;20057;-79
2022/11/18 07:31:10;;;;;;;2.83;1.13;;;;;;;8.57;90.43;98438.88;1085090;54;20022;-78
2022/11/18 07:32:11;;;;;;;2.90;0.93;;;;;;;8.50;90.75;98445.88;1084552;54;20034;-78
2022/11/18 07:33:16;;;;;;;2.88;1.00;;;;;;;8.41;91.16;98452.19;1085014;54;20035;-78
2022/11/18 07:34:20;;;;;;;2.75;1.00;;;;;;;8.45;90.96;98447.38;1084734;54;20056;-77
2022/11/18 07:35:23;;;;;;;2.67;0.90;;;;;;;8.51;90.83;98452.88;1084579;46;20027;-78
2022/11/18 07:36:29;;;;;;;2.53;1.05;;;;;;;8.62;89.99;98453.50;1084459;54;20026;-78
2022/11/18 07:37:30;;;;;;;3.38;1.20;;;;;;;8.61;90.04;98451.84;1084443;46;20054;-80
2022/11/18 07:38:51;;;;;;;2.47;1.00;;;;;;;8.63;89.48;98460.50;1084811;54;20033;-78
2022/11/18 07:39:55;;;;;;;4.38;1.25;;;;;;;8.55;90.32;98458.69;1084696;54;20098;-77
2022/11/18 07:41:03;;;;;;;3.40;1.20;;;;;;;8.42;90.28;98460.03;1084647;54;20046;-77
2022/11/18 07:42:07;;;;;;;2.30;1.00;;;;;;;8.49;90.45;98462.88;1085871;39;20462;-78
2022/11/18 07:43:11;;;;;;;3.13;1.02;;;;;;;8.58;89.84;98459.19;1084523;54;20580;-78
2022/11/18 07:44:23;;;;;;;3.35;1.20;;;;;;;8.54;90.34;98462.38;1084573;54;20035;-78
2022/11/18 07:45:24;;;;;;;3.05;1.10;;;;;;;8.54;90.29;98468.53;1085098;46;20122;-78
2022/11/18 07:46:42;;;;;;;3.90;1.15;;;;;;;8.45;91.01;98479.34;1084562;47;20026;-77
2022/11/18 07:47:44;;;;;;;2.80;1.00;;;;;;;8.46;90.74;98476.50;1084823;54;20042;-78
2022/11/18 07:48:51;;;;;;;2.67;0.90;;;;;;;8.45;90.91;98474.03;1086708;39;20418;-78
2022/11/18 07:49:56;;;;;;;4.40;1.40;;;;;;;8.41;91.10;98473.50;1084851;46;20046;-79
2022/11/18 07:51:10;;;;;;;2.40;0.90;;;;;;;8.40;90.81;98477.19;1084620;54;20038;-78
2022/11/18 07:52:11;;;;;;;3.00;0.90;;;;;;;8.45;90.55;98479.34;1085357;46;20026;-77
2022/11/18 07:53:40;;;;;;;3.72;0.98;;;;;;;8.37;89.88;98482.84;1085062;54;20042;-78
2022/11/18 07:54:45;;;;;;;4.45;1.45;;;;;;;8.52;89.76;98483.03;1084894;54;20030;-79
2022/11/18 07:55:58;;;;;;;3.40;1.40;;;;;;;8.33;88.01;98482.34;1084506;54;20049;-78
2022/11/18 07:57:02;;;;;;;2.20;0.80;;;;;;;8.31;88.93;98486.19;1084907;54;20099;-78
2022/11/18 07:58:13;;;;;;;2.05;0.70;;;;;;;8.32;88.77;98482.50;1085001;54;20031;-80
2022/11/18 07:59:17;;;;;;;3.50;1.00;;;;;;;8.40;88.64;98487.84;1084836;54;20031;-78
2022/11/18 08:00:19;;;;;;;2.47;0.93;;;;;;;8.55;87.85;98493.31;1085358;46;20581;-78
2022/11/18 08:01:39;;;;;;;2.42;1.00;;;;;;;8.40;87.12;98487.84;1084964;46;20030;-80
2022/11/18 08:02:42;;;;;;;2.70;0.93;;;;;;;8.48;87.78;98498.50;1084737;54;20027;-78
2022/11/18 08:03:48;;;;;;;2.75;1.10;;;;;;;8.51;87.65;98498.16;1084891;54;20553;-79
2022/11/18 08:04:49;;;;;;;2.88;0.73;;;;;;;8.58;87.39;98496.50;1085080;47;20060;-79
2022/11/18 08:05:54;;;;;;;1.25;0.57;;;;;;;8.57;86.89;98493.97;1085065;54;20054;-80
2022/11/18 08:06:56;;;;;;;1.58;0.60;;;;;;;8.41;87.56;98494.81;1085318;47;20043;-78
2022/11/18 08:08:00;;;;;;;1.58;0.65;;;;;;;8.32;87.36;98495.81;1085056;54;20030;-77
2022/11/18 08:09:03;;;;;;;2.28;0.60;;;;;;;8.28;87.31;98498.84;1085646;46;20030;-79
2022/11/18 08:10:09;;;;;;;1.15;0.40;;;;;;;8.26;87.54;98500.00;1084098;54;20567;-77
2022/11/18 08:11:19;;;;;;;2.63;0.60;;;;;;;8.34;87.47;98501.81;1085444;54;20130;-78
2022/11/18 08:12:20;;;;;;;2.33;0.73;;;;;;;8.24;87.48;98505.47;1085232;54;20046;-78
2022/11/18 08:13:31;;;;;;;2.17;0.65;;;;;;;8.26;87.08;98506.16;1085111;54;20035;-78
2022/11/18 08:14:47;;;;;;;2.75;0.88;;;;;;;8.24;87.25;98508.16;1084694;54;20110;-78
2022/11/18 08:15:48;;;;;;;2.42;0.60;;;;;;;8.21;87.39;98504.97;1085352;46;20038;-76
2022/11/18 08:17:05;;;;;;;2.15;0.77;;;;;;;8.17;87.62;98511.66;1085391;46;20046;-79
2022/11/18 08:18:07;;;;;;;3.03;0.60;;;;;;;8.31;87.55;98510.16;1085098;54;20026;-79
2022/11/18 08:19:14;;;;;;;2.53;0.65;;;;;;;8.21;87.13;98510.31;1085113;54;20034;-78
2022/11/18 08:20:16;;;;;;;2.00;0.70;;;;;;;8.27;87.31;98513.13;1084932;47;20614;-79
2022/11/18 08:21:22;;;;;;;2.35;0.70;;;;;;;8.31;87.10;98516.28;1084976;46;20026;-79
2022/11/18 08:22:24;;;;;;;1.83;0.63;;;;;;;8.21;87.42;98512.97;1085087;47;20035;-79
2022/11/18 08:23:42;;;;;;;3.50;0.70;;;;;;;8.24;87.48;98515.31;1084973;54;20034;-79
2022/11/18 08:24:44;;;;;;;2.60;0.60;;;;;;;8.24;87.38;98516.13;1085450;47;20561;-79
2022/11/18 08:26:06;;;;;;;2.10;0.70;;;;;;;8.26;87.09;98523.97;1084927;54;20046;-79
2022/11/18 08:27:07;;;;;;;2.03;0.63;;;;;;;8.34;86.98;98509.78;1084785;54;20553;-79
2022/11/18 08:28:21;;;;;;;1.73;0.60;;;;;;;8.22;87.05;98518.13;1084770;54;20031;-78
2022/11/18 08:29:29;;;;;;;2.90;1.00;;;;;;;8.16;87.64;98516.13;1084874;54;20064;-79
2022/11/18 08:30:35;;;;;;;2.67;0.90;;;;;;;8.14;87.90;98515.47;1085114;46;20058;-79
2022/11/18 08:31:41;;;;;;;2.72;0.80;;;;;;;8.20;87.76;98520.13;1084826;54;20030;-79
2022/11/18 08:32:45;;;;;;;2.67;1.00;;;;;;;8.19;87.97;98518.47;1085197;39;20098;-78
2022/11/18 08:33:47;;;;;;;2.67;0.90;;;;;;;8.34;87.46;98520.44;1084848;54;20031;-78
2022/11/18 08:34:52;;;;;;;3.72;1.10;;;;;;;8.40;87.40;98517.94;1084363;54;20553;-79
2022/11/18 08:35:53;;;;;;;2.67;0.90;;;;;;;8.22;87.48;98518.13;1084581;54;20065;-79
2022/11/18 08:36:58;;;;;;;2.70;0.82;;;;;;;8.16;87.89;98524.13;1084816;54;20082;-79
2022/11/18 08:38:02;;;;;;;2.00;0.70;;;;;;;8.22;87.84;98519.97;1085096;54;20122;-78
2022/11/18 08:39:08;;;;;;;2.78;0.80;;;;;;;8.26;87.63;98526.63;1084800;54;20561;-79
2022/11/18 08:40:11;;;;;;;3.65;0.80;;;;;;;8.27;87.48;98522.94;1085826;54;20034;-77
2022/11/18 08:41:16;;;;;;;2.15;0.77;;;;;;;8.15;88.02;98540.28;1085762;54;20033;-79
2022/11/18 08:42:21;;;;;;;2.85;0.65;;;;;;;8.16;87.85;98532.09;1086298;31;20518;-78
2022/11/18 08:43:30;;;;;;;2.38;0.70;;;;;;;8.37;87.27;98528.09;1085466;54;20037;-77
2022/11/18 08:44:35;;;;;;;1.63;0.73;;;;;;;8.50;86.74;98540.94;1085528;54;20031;-78
2022/11/18 08:46:22;;;;;;;1.77;0.63;;;;;;;8.58;86.10;98531.13;1085606;54;20026;-77
2022/11/18 09:14:12;;;;;;;2.72;0.93;;;;;;;8.23;89.69;98562.38;1080721;54;20034;-78
2022/11/18 09:15:14;;;;;;;3.22;1.40;;;;;;;8.27;89.30;98558.41;1085152;54;20038;-80
2022/11/18 09:16:36;;;;;;;4.20;2.10;;;;;;;8.39;89.22;98561.56;1085067;54;20034;-79
2022/11/18 09:17:37;;;;;;;5.05;2.78;;;;;;;8.32;89.00;98567.72;1084838;54;20046;-81
2022/11/18 09:18:51;;;;;;;6.03;3.03;;;;;;;8.34;89.49;98555.91;1085427;47;20068;-80
2022/11/18 09:19:55;;;;;;;4.75;2.67;;;;;;;8.34;88.88;98555.91;1086280;47;20038;-79
2022/11/18 09:21:03;;;;;;;4.35;2.00;;;;;;;8.34;89.33;98563.06;1085025;54;20031;-79
2022/11/18 09:22:08;;;;;;;11.95;8.80;;;;;;;8.26;89.53;98561.25;1084620;54;20035;-79
2022/11/18 09:23:12;;;;;;;7.63;3.60;;;;;;;8.27;89.33;98560.22;1084904;54;20042;-79
2022/11/18 09:24:17;;;;;;;4.38;2.33;;;;;;;8.40;88.96;98565.06;1085563;47;20026;-77
2022/11/18 09:25:22;;;;;;;3.83;1.60;;;;;;;8.33;89.36;98564.03;1085923;54;20035;-79
2022/11/18 09:26:26;;;;;;;4.93;1.60;;;;;;;8.50;88.63;98567.56;1085514;54;20046;-79
2022/11/18 09:27:28;;;;;;;3.67;1.40;;;;;;;8.44;88.85;98561.06;1084984;54;20042;-80
2022/11/18 09:28:32;;;;;;;2.85;1.00;;;;;;;8.40;89.37;98563.22;1085533;39;20417;-80
2022/11/18 09:29:40;;;;;;;2.22;0.90;;;;;;;8.37;89.01;98562.72;1085138;54;20038;-78
2022/11/18 09:30:45;;;;;;;2.40;0.93;;;;;;;8.34;89.43;98563.06;1085151;46;20037;-79
2022/11/18 09:31:53;;;;;;;4.22;0.80;;;;;;;8.38;89.43;98567.88;1085423;54;20030;-79
2022/11/18 09:33:00;;;;;;;11.93;4.53;;;;;;;8.39;89.28;98569.53;1085758;39;20564;-79
2022/11/18 09:34:01;;;;;;;6.85;2.63;;;;;;;8.43;89.39;98568.22;1085262;54;20030;-77
2022/11/18 09:35:07;;;;;;;3.92;1.60;;;;;;;8.46;89.14;98567.06;1085139;54;20041;-78
2022/11/18 09:36:12;;;;;;;4.85;1.95;;;;;;;8.42;89.28;98571.03;1085399;54;20038;-78
2022/11/18 09:37:17;;;;;;;13.15;7.57;;;;;;;8.41;89.00;98569.38;1086109;39;20478;-77
2022/11/18 09:38:29;;;;;;;5.85;2.40;;;;;;;8.40;89.08;98573.88;1085333;54;20038;-79
2022/11/18 09:39:36;;;;;;;6.32;2.50;;;;;;;8.43;89.17;98567.38;1085456;54;20603;-80
2022/11/18 09:40:48;;;;;;;7.68;3.85;;;;;;;8.52;88.69;98577.06;1085223;54;20061;-78
2022/11/18 09:41:58;;;;;;;11.02;4.28;;;;;;;8.47;89.10;98574.06;1085373;54;20042;-78
2022/11/18 09:43:10;;;;;;;5.07;2.00;;;;;;;8.38;89.28;98569.72;1085855;46;20031;-79
2022/11/18 09:44:39;;;;;;;4.82;1.67;;;;;;;8.45;89.62;98578.69;1085508;54;20049;-79
2022/11/18 09:45:51;;;;;;;3.90;1.40;;;;;;;8.52;89.32;98579.72;1085475;54;20070;-77
2022/11/18 09:47:07;;;;;;;6.43;2.45;;;;;;;8.55;88.85;98579.41;1087510;39;20421;-78
2022/11/18 09:48:19;;;;;;;4.43;1.80;;;;;;;8.61;89.49;98579.72;1086908;54;20033;-77
2022/11/18 09:49:27;;;;;;;3.72;1.30;;;;;;;8.55;89.42;98575.88;1088208;54;20038;-78
2022/11/18 09:50:31;;;;;;;3.80;1.15;;;;;;;8.65;89.21;98584.53;1088838;46;20035;-79
2022/11/18 09:53:59;;;;;;;5.65;2.97;;;;;;;8.68;89.34;98586.06;1088295;54;20070;-80
2022/11/18 09:56:53;;;;;;;73.43;33.83;;;;;;;8.68;89.73;98586.88;1085653;54;20021;-78
2022/11/18 09:58:00;;;;;;;66.22;33.65;;;;;;;8.81;89.12;98580.19;1085491;54;20034;-77
2022/11/18 09:59:03;;;;;;;33.28;17.02;;;;;;;8.79;89.30;98585.69;1086190;46;20030;-77
2022/11/18 10:00:16;;;;;;;24.13;12.45;;;;;;;8.83;89.24;98584.34;1085437;46;20026;-77
2022/11/18 10:01:23;;;;;;;10.60;4.93;;;;;;;8.81;89.51;98589.00;1085434;54;20065;-78
2022/11/18 10:02:37;;;;;;;9.70;4.07;;;;;;;8.85;89.30;98582.34;1085635;54;20061;-78
2022/11/18 10:03:41;;;;;;;6.13;3.08;;;;;;;8.86;89.18;98583.19;1087365;54;20015;-81
2022/11/18 10:04:43;;;;;;;4.90;2.00;;;;;;;8.90;89.14;98584.50;1087978;54;20042;-80
2022/11/18 10:05:53;;;;;;;4.45;1.70;;;;;;;8.94;88.57;98582.34;1087818;46;20042;-78
2022/11/18 10:06:59;;;;;;;4.03;1.45;;;;;;;8.90;88.59;98582.66;1085680;46;20158;-77
2022/11/18 10:08:16;;;;;;;3.92;1.60;;;;;;;8.89;88.89;98578.34;1085253;54;20041;-79
2022/11/18 10:09:29;;;;;;;4.53;2.17;;;;;;;8.90;88.96;98590.66;1085328;54;20049;-77
2022/11/18 10:10:51;;;;;;;3.85;1.60;;;;;;;9.12;88.23;98587.44;1085177;54;20046;-77
2022/11/18 10:12:10;;;;;;;3.78;1.63;;;;;;;8.94;88.20;98585.00;1085922;46;20034;-77
2022/11/18 10:13:23;;;;;;;2.88;1.20;;;;;;;8.85;88.91;98585.03;1085373;54;20042;-79
2022/11/18 10:14:39;;;;;;;2.35;0.90;;;;;;;8.91;88.88;98586.19;1085119;46;20030;-80
2022/11/18 10:15:55;;;;;;;4.05;1.00;;;;;;;8.82;89.57;98592.53;1086214;46;20609;-78
2022/11/18 10:17:12;;;;;;;1.67;0.60;;;;;;;8.84;89.63;98586.03;1085294;54;20073;-78